Terminal Aerodrome Forecast
Issued by NWS

Home | Current Version | Previous Version | Text Only | Print | Product List | Glossary On
Versions: 1 2 3 4 5 6 7 8 9 10 11 12 13 14 15 16 17 18 19 20 21 22 23
000
FTUS43 KPAH 040523
TAFCGI
TAF
KCGI 040523Z 0406/0506 35006KT 1/2SM RA FG FEW007 BKN025
      TEMPO 0406/0410 1SM -RA BR BKN015
     FM041300 01013G20KT 3SM -PLSN BR OVC015
     FM042100 01015G21KT 2SM -SN BR OVC020=

USA.gov is the U.S. government's official web portal to all federal, state and local government web resources and services.